URKA Airport Information

Runway Information
Runway 04 Length 8202 ft width 138 ft
Elevation 137 ft Threshold 0 ft Heading 42
Runway 22 Length 8202 ft Width 138 ft
Elevation 174 ft Threshold 0 ft Heading 222
Airport Frequencies
Type APP Name ANAPA APP Frequency 118.7 MHZ
Type TWR Name ANAPA KRUG Frequency 119.8 MHZ
Airport Navaids
Type NDB Name Anapa Frequency 443 KHZ
Type NDB Name Anapa Frequency 443 KHZ
Airport Weather Information & NOTAM
ADDS - METARS form results

(0527 UTC 29 November 2021)
Data provider http://aviationweather.gov/metar/data/
 
METAR text: URKA 290500Z 18007MPS 9999 FEW/// 14/10 Q1009 R22/190065 NOSIG RMK QFE751/1002
Conditions at: URKA (ANAPA/VITIAZEVO , RU) observed 0500 UTC 29 November 2021
Temperature: 14.0°C (57°F)
Dewpoint: 10.0°C (50°F) [RH = 77%]
Pressure (altimeter): 29.79 inches Hg (1009.0 mb)
Winds: from the S (180 degrees) at 16 MPH (14 knots; 7.2 m/s)
Visibility: 6 or more miles (10+ km)
Ceiling: unknown
Clouds: missing
Weather: no significant weather observed at this time

METAR text: URKA 290430Z 17006MPS 9999 FEW/// 13/10 Q1008 R22/190065 NOSIG RMK QFE751/1002
Conditions at: URKA (ANAPA/VITIAZEVO , RU) observed 0430 UTC 29 November 2021
Temperature: 13.0°C (55°F)
Dewpoint: 10.0°C (50°F) [RH = 82%]
Pressure (altimeter): 29.76 inches Hg (1008.0 mb)
Winds: from the S (170 degrees) at 14 MPH (12 knots; 6.2 m/s)
Visibility: 6 or more miles (10+ km)
Ceiling: unknown
Clouds: missing
Weather: no significant weather observed at this time

Forecast for: URKA (ANAPA/VITIAZEVO , RU)
Text: TAF URKA 290458Z 2906/3006 18009G14MPS 9999 SCT020CB
Forecast period: 0600 UTC 29 November 2021 to 0600 UTC 30 November 2021
Forecast type: FROM: standard forecast or significant change
Winds: from the S (180 degrees) at 20 MPH (17 knots; 8.7 m/s)
gusting to 31 MPH (27 knots; 13.9 m/s)
Visibility: 6 or more miles (10+ km)
Ceiling: at least 12,000 feet AGL
Clouds: scattered clouds at 2000 feet AGL
Weather: no significant weather forecast for this period
Text: TEMPO 2906/2909 16013G18MPS BKN016CB
Forecast period: 0600 to 0900 UTC 29 November 2021
Forecast type: TEMPORARY: The following changes expected for less than half the time period
Winds: from the SSE (160 degrees) at 29 MPH (25 knots; 12.9 m/s)
gusting to 40 MPH (35 knots; 18.0 m/s)
Visibility: missing
Ceiling: 1600 feet AGL
Clouds: broken clouds at 1600 feet AGL
Weather: no significant weather forecast for this period
Text: TEMPO 2909/3006 20015G24MPS 6000 -SHRA BKN007 BKN016CB
Forecast period: 0900 UTC 29 November 2021 to 0600 UTC 30 November 2021
Forecast type: TEMPORARY: The following changes expected for less than half the time period
Winds: from the SSW (200 degrees) at 33 MPH (29 knots; 14.9 m/s)
gusting to 54 MPH (47 knots; 24.2 m/s)
Visibility: 4 miles (6 km)
Ceiling: 700 feet AGL
Clouds: broken clouds at 700 feet AGL
broken clouds at 1600 feet AGL
Weather: -SHRA  (light rain showers)